Terminal Aerodrome Forecast
Issued by NWS Caribou, ME

Home | Current Version | Previous Version | Text Only | Print | Product List | Glossary On
Versions: 1 2 3 4 5 6 7 8 9 10 11 12 13 14 15 16 17 18 19 20 21 22 23 24 25 26 27 28 29 30 31 32 33 34 35
182
FTUS41 KCAR 271127
TAFCAR
TAF
KCAR 271127Z 2712/2812 20010KT P6SM SCT030 BKN040
     FM271500 22012G23KT 6SM -SHSN BKN040
     FM271900 26015G26KT P6SM BKN040
     FM272300 29010KT 6SM -SHSN BKN030
     FM280300 32006KT P6SM BKN050
     FM280700 00000KT 6SM -SHSN BKN030=

USA.gov is the U.S. government's official web portal to all federal, state and local government web resources and services.